sensor_id;sensor_type;location;lat;lon;timestamp;temperature;humidity
48994;DHT22;34804;49.214;12.276;2023-05-07T00:01:50;10.50;89.60
48994;DHT22;34804;49.214;12.276;2023-05-07T00:04:17;10.60;89.40
48994;DHT22;34804;49.214;12.276;2023-05-07T00:06:45;10.60;88.90
48994;DHT22;34804;49.214;12.276;2023-05-07T00:09:11;10.60;88.40
48994;DHT22;34804;49.214;12.276;2023-05-07T00:11:39;10.40;88.90
48994;DHT22;34804;49.214;12.276;2023-05-07T00:14:06;10.30;88.80
48994;DHT22;34804;49.214;12.276;2023-05-07T00:16:32;10.20;88.80
48994;DHT22;34804;49.214;12.276;2023-05-07T00:18:59;10.20;89.20
48994;DHT22;34804;49.214;12.276;2023-05-07T00:21:26;10.20;89.20
48994;DHT22;34804;49.214;12.276;2023-05-07T00:23:54;10.30;89.40
48994;DHT22;34804;49.214;12.276;2023-05-07T00:26:22;10.20;88.90
48994;DHT22;34804;49.214;12.276;2023-05-07T00:28:48;10.20;89.20
48994;DHT22;34804;49.214;12.276;2023-05-07T00:31:15;10.10;89.00
48994;DHT22;34804;49.214;12.276;2023-05-07T00:33:42;10.10;89.20
48994;DHT22;34804;49.214;12.276;2023-05-07T00:36:09;10.20;89.90
48994;DHT22;34804;49.214;12.276;2023-05-07T00:38:36;10.20;89.40
48994;DHT22;34804;49.214;12.276;2023-05-07T00:41:03;10.10;89.00
48994;DHT22;34804;49.214;12.276;2023-05-07T00:43:29;10.20;89.20
48994;DHT22;34804;49.214;12.276;2023-05-07T00:45:57;10.10;88.90
48994;DHT22;34804;49.214;12.276;2023-05-07T00:48:25;10.00;89.20
48994;DHT22;34804;49.214;12.276;2023-05-07T00:50:52;9.90;89.00
48994;DHT22;34804;49.214;12.276;2023-05-07T00:53:19;9.80;89.20
48994;DHT22;34804;49.214;12.276;2023-05-07T00:55:46;9.70;89.70
48994;DHT22;34804;49.214;12.276;2023-05-07T00:58:13;9.60;89.30
48994;DHT22;34804;49.214;12.276;2023-05-07T01:00:40;9.70;89.20
48994;DHT22;34804;49.214;12.276;2023-05-07T01:03:07;9.70;89.20
48994;DHT22;34804;49.214;12.276;2023-05-07T01:05:35;9.60;88.90
48994;DHT22;34804;49.214;12.276;2023-05-07T01:08:04;9.60;89.30
48994;DHT22;34804;49.214;12.276;2023-05-07T01:10:31;9.50;89.50
48994;DHT22;34804;49.214;12.276;2023-05-07T01:12:59;9.50;89.20
48994;DHT22;34804;49.214;12.276;2023-05-07T01:15:27;9.50;89.00
48994;DHT22;34804;49.214;12.276;2023-05-07T01:17:54;9.50;89.60
48994;DHT22;34804;49.214;12.276;2023-05-07T01:20:22;9.50;89.90
48994;DHT22;34804;49.214;12.276;2023-05-07T01:22:50;9.40;90.10
48994;DHT22;34804;49.214;12.276;2023-05-07T01:25:17;9.40;89.80
48994;DHT22;34804;49.214;12.276;2023-05-07T01:27:44;9.40;89.80
48994;DHT22;34804;49.214;12.276;2023-05-07T01:30:12;9.40;89.00
48994;DHT22;34804;49.214;12.276;2023-05-07T01:32:52;9.40;89.00
48994;DHT22;34804;49.214;12.276;2023-05-07T01:35:22;9.20;89.80
48994;DHT22;34804;49.214;12.276;2023-05-07T01:37:51;9.20;89.60
48994;DHT22;34804;49.214;12.276;2023-05-07T01:40:18;9.00;90.10
48994;DHT22;34804;49.214;12.276;2023-05-07T01:42:45;9.00;90.70
48994;DHT22;34804;49.214;12.276;2023-05-07T01:45:12;9.20;90.60
48994;DHT22;34804;49.214;12.276;2023-05-07T01:47:40;9.20;89.70
48994;DHT22;34804;49.214;12.276;2023-05-07T01:50:09;9.20;89.70
48994;DHT22;34804;49.214;12.276;2023-05-07T01:52:38;9.10;89.50
48994;DHT22;34804;49.214;12.276;2023-05-07T01:55:06;9.10;88.80
48994;DHT22;34804;49.214;12.276;2023-05-07T01:57:33;9.10;88.70
48994;DHT22;34804;49.214;12.276;2023-05-07T01:59:59;9.00;88.60
48994;DHT22;34804;49.214;12.276;2023-05-07T02:02:26;9.00;89.20
48994;DHT22;34804;49.214;12.276;2023-05-07T02:04:54;8.90;89.70
48994;DHT22;34804;49.214;12.276;2023-05-07T02:07:21;8.90;89.80
48994;DHT22;34804;49.214;12.276;2023-05-07T02:09:47;8.80;89.10
48994;DHT22;34804;49.214;12.276;2023-05-07T02:12:14;8.80;89.40
48994;DHT22;34804;49.214;12.276;2023-05-07T02:14:41;8.80;89.90
48994;DHT22;34804;49.214;12.276;2023-05-07T02:17:08;8.80;90.10
48994;DHT22;34804;49.214;12.276;2023-05-07T02:19:35;8.80;89.00
48994;DHT22;34804;49.214;12.276;2023-05-07T02:22:02;8.80;90.10
48994;DHT22;34804;49.214;12.276;2023-05-07T02:24:29;8.90;90.20
48994;DHT22;34804;49.214;12.276;2023-05-07T02:26:57;8.80;90.00
48994;DHT22;34804;49.214;12.276;2023-05-07T02:29:24;8.80;89.10
48994;DHT22;34804;49.214;12.276;2023-05-07T02:31:52;8.80;89.50
48994;DHT22;34804;49.214;12.276;2023-05-07T02:34:19;8.70;89.90
48994;DHT22;34804;49.214;12.276;2023-05-07T02:36:46;8.70;90.20
48994;DHT22;34804;49.214;12.276;2023-05-07T02:39:14;8.50;90.40
48994;DHT22;34804;49.214;12.276;2023-05-07T02:41:42;8.50;90.80
48994;DHT22;34804;49.214;12.276;2023-05-07T02:44:08;8.50;91.30
48994;DHT22;34804;49.214;12.276;2023-05-07T02:46:36;8.50;90.70
48994;DHT22;34804;49.214;12.276;2023-05-07T02:49:03;8.50;91.20
48994;DHT22;34804;49.214;12.276;2023-05-07T02:51:30;8.50;91.40
48994;DHT22;34804;49.214;12.276;2023-05-07T02:53:58;8.60;91.40
48994;DHT22;34804;49.214;12.276;2023-05-07T02:56:26;8.60;90.80
48994;DHT22;34804;49.214;12.276;2023-05-07T02:58:53;8.70;91.10
48994;DHT22;34804;49.214;12.276;2023-05-07T03:01:20;8.60;90.40
48994;DHT22;34804;49.214;12.276;2023-05-07T03:03:47;8.70;90.70
48994;DHT22;34804;49.214;12.276;2023-05-07T03:06:14;8.70;90.40
48994;DHT22;34804;49.214;12.276;2023-05-07T03:08:42;8.70;90.10
48994;DHT22;34804;49.214;12.276;2023-05-07T03:11:09;8.70;89.90
48994;DHT22;34804;49.214;12.276;2023-05-07T03:13:36;8.60;90.30
48994;DHT22;34804;49.214;12.276;2023-05-07T03:16:03;8.60;90.50
48994;DHT22;34804;49.214;12.276;2023-05-07T03:18:30;8.50;90.70
48994;DHT22;34804;49.214;12.276;2023-05-07T03:20:58;8.50;90.50
48994;DHT22;34804;49.214;12.276;2023-05-07T03:23:25;8.60;90.90
48994;DHT22;34804;49.214;12.276;2023-05-07T03:25:51;8.60;90.70
48994;DHT22;34804;49.214;12.276;2023-05-07T03:28:18;8.60;90.30
48994;DHT22;34804;49.214;12.276;2023-05-07T03:30:45;8.60;90.80
48994;DHT22;34804;49.214;12.276;2023-05-07T03:33:12;8.70;90.90
48994;DHT22;34804;49.214;12.276;2023-05-07T03:35:39;8.70;91.30
48994;DHT22;34804;49.214;12.276;2023-05-07T03:38:07;8.80;91.60
48994;DHT22;34804;49.214;12.276;2023-05-07T03:40:34;8.90;91.40
48994;DHT22;34804;49.214;12.276;2023-05-07T03:43:01;9.00;91.20
48994;DHT22;34804;49.214;12.276;2023-05-07T03:45:28;9.10;91.00
48994;DHT22;34804;49.214;12.276;2023-05-07T03:47:55;9.10;90.80
48994;DHT22;34804;49.214;12.276;2023-05-07T03:50:21;9.00;90.80
48994;DHT22;34804;49.214;12.276;2023-05-07T03:52:48;9.10;90.90
48994;DHT22;34804;49.214;12.276;2023-05-07T03:55:15;9.00;90.10
48994;DHT22;34804;49.214;12.276;2023-05-07T03:57:42;9.00;90.40
48994;DHT22;34804;49.214;12.276;2023-05-07T04:00:09;8.90;90.50
48994;DHT22;34804;49.214;12.276;2023-05-07T04:02:36;9.00;90.70
48994;DHT22;34804;49.214;12.276;2023-05-07T04:05:04;9.00;90.90
48994;DHT22;34804;49.214;12.276;2023-05-07T04:07:31;8.90;90.20
48994;DHT22;34804;49.214;12.276;2023-05-07T04:09:58;9.00;90.80
48994;DHT22;34804;49.214;12.276;2023-05-07T04:12:25;9.00;90.70
48994;DHT22;34804;49.214;12.276;2023-05-07T04:14:52;8.90;91.30
48994;DHT22;34804;49.214;12.276;2023-05-07T04:17:19;9.00;91.20
48994;DHT22;34804;49.214;12.276;2023-05-07T04:19:45;9.00;90.90
48994;DHT22;34804;49.214;12.276;2023-05-07T04:22:14;9.10;91.20
48994;DHT22;34804;49.214;12.276;2023-05-07T04:24:41;9.10;91.00
48994;DHT22;34804;49.214;12.276;2023-05-07T04:27:07;9.20;90.90
48994;DHT22;34804;49.214;12.276;2023-05-07T04:29:34;9.20;91.00
48994;DHT22;34804;49.214;12.276;2023-05-07T04:32:02;9.30;91.20
48994;DHT22;34804;49.214;12.276;2023-05-07T04:34:29;9.30;90.30
48994;DHT22;34804;49.214;12.276;2023-05-07T04:36:58;9.30;90.40
48994;DHT22;34804;49.214;12.276;2023-05-07T04:39:26;9.30;91.00
48994;DHT22;34804;49.214;12.276;2023-05-07T04:41:52;9.50;91.50
48994;DHT22;34804;49.214;12.276;2023-05-07T04:44:19;9.50;91.40
48994;DHT22;34804;49.214;12.276;2023-05-07T04:46:46;9.60;91.30
48994;DHT22;34804;49.214;12.276;2023-05-07T04:49:13;9.80;91.30
48994;DHT22;34804;49.214;12.276;2023-05-07T04:51:40;9.90;91.20
48994;DHT22;34804;49.214;12.276;2023-05-07T04:54:11;9.90;91.40
48994;DHT22;34804;49.214;12.276;2023-05-07T04:56:38;10.10;91.40
48994;DHT22;34804;49.214;12.276;2023-05-07T04:59:05;10.10;91.10
48994;DHT22;34804;49.214;12.276;2023-05-07T05:01:32;10.20;91.40
48994;DHT22;34804;49.214;12.276;2023-05-07T05:03:59;10.20;91.10
48994;DHT22;34804;49.214;12.276;2023-05-07T05:06:27;10.20;90.60
48994;DHT22;34804;49.214;12.276;2023-05-07T05:08:54;10.10;90.90
48994;DHT22;34804;49.214;12.276;2023-05-07T05:11:22;10.20;91.00
48994;DHT22;34804;49.214;12.276;2023-05-07T05:13:49;10.30;90.90
48994;DHT22;34804;49.214;12.276;2023-05-07T05:16:16;10.30;91.00
48994;DHT22;34804;49.214;12.276;2023-05-07T05:18:43;10.40;91.30
48994;DHT22;34804;49.214;12.276;2023-05-07T05:21:10;10.50;91.40
48994;DHT22;34804;49.214;12.276;2023-05-07T05:23:37;10.70;91.50
48994;DHT22;34804;49.214;12.276;2023-05-07T05:26:03;10.80;91.30
48994;DHT22;34804;49.214;12.276;2023-05-07T05:28:30;10.90;91.30
48994;DHT22;34804;49.214;12.276;2023-05-07T05:30:57;10.90;91.20
48994;DHT22;34804;49.214;12.276;2023-05-07T05:33:24;11.10;90.90
48994;DHT22;34804;49.214;12.276;2023-05-07T05:35:51;11.20;91.10
48994;DHT22;34804;49.214;12.276;2023-05-07T05:38:18;11.40;90.90
48994;DHT22;34804;49.214;12.276;2023-05-07T05:40:45;11.50;89.90
48994;DHT22;34804;49.214;12.276;2023-05-07T05:43:11;11.70;89.20
48994;DHT22;34804;49.214;12.276;2023-05-07T05:45:38;11.80;88.80
48994;DHT22;34804;49.214;12.276;2023-05-07T05:48:05;12.00;88.10
48994;DHT22;34804;49.214;12.276;2023-05-07T05:50:32;12.20;86.70
48994;DHT22;34804;49.214;12.276;2023-05-07T05:52:59;12.30;86.90
48994;DHT22;34804;49.214;12.276;2023-05-07T05:55:26;12.40;86.70
48994;DHT22;34804;49.214;12.276;2023-05-07T05:57:53;12.50;85.40
48994;DHT22;34804;49.214;12.276;2023-05-07T06:00:20;12.60;85.50
48994;DHT22;34804;49.214;12.276;2023-05-07T06:02:49;12.80;86.40
48994;DHT22;34804;49.214;12.276;2023-05-07T06:05:16;12.80;84.10
48994;DHT22;34804;49.214;12.276;2023-05-07T06:07:42;13.00;84.10
48994;DHT22;34804;49.214;12.276;2023-05-07T06:10:09;13.10;84.50
48994;DHT22;34804;49.214;12.276;2023-05-07T06:12:37;13.20;83.50
48994;DHT22;34804;49.214;12.276;2023-05-07T06:15:04;13.30;82.80
48994;DHT22;34804;49.214;12.276;2023-05-07T06:17:31;13.40;82.60
48994;DHT22;34804;49.214;12.276;2023-05-07T06:19:58;13.40;82.10
48994;DHT22;34804;49.214;12.276;2023-05-07T06:22:25;13.50;81.30
48994;DHT22;34804;49.214;12.276;2023-05-07T06:24:52;13.70;81.90
48994;DHT22;34804;49.214;12.276;2023-05-07T06:27:18;13.80;81.60
48994;DHT22;34804;49.214;12.276;2023-05-07T06:29:47;13.80;81.20
48994;DHT22;34804;49.214;12.276;2023-05-07T06:32:14;13.90;81.50
48994;DHT22;34804;49.214;12.276;2023-05-07T06:34:41;13.90;81.50
48994;DHT22;34804;49.214;12.276;2023-05-07T06:37:08;14.10;81.30
48994;DHT22;34804;49.214;12.276;2023-05-07T06:39:37;14.30;80.80
48994;DHT22;34804;49.214;12.276;2023-05-07T06:42:04;14.30;80.20
48994;DHT22;34804;49.214;12.276;2023-05-07T06:44:31;14.40;80.10
48994;DHT22;34804;49.214;12.276;2023-05-07T06:46:58;14.30;78.80
48994;DHT22;34804;49.214;12.276;2023-05-07T06:49:25;14.40;80.30
48994;DHT22;34804;49.214;12.276;2023-05-07T06:51:52;14.60;80.30
48994;DHT22;34804;49.214;12.276;2023-05-07T06:54:20;14.80;78.90
48994;DHT22;34804;49.214;12.276;2023-05-07T06:56:47;14.90;78.10
48994;DHT22;34804;49.214;12.276;2023-05-07T06:59:14;14.80;77.00
48994;DHT22;34804;49.214;12.276;2023-05-07T07:01:41;15.10;77.70
48994;DHT22;34804;49.214;12.276;2023-05-07T07:04:08;15.00;76.70
48994;DHT22;34804;49.214;12.276;2023-05-07T07:06:35;15.00;77.40
48994;DHT22;34804;49.214;12.276;2023-05-07T07:09:02;15.00;76.30
48994;DHT22;34804;49.214;12.276;2023-05-07T07:11:29;15.10;77.10
48994;DHT22;34804;49.214;12.276;2023-05-07T07:13:56;15.30;77.50
48994;DHT22;34804;49.214;12.276;2023-05-07T07:16:23;15.50;76.30
48994;DHT22;34804;49.214;12.276;2023-05-07T07:18:50;15.50;76.30
48994;DHT22;34804;49.214;12.276;2023-05-07T07:21:17;15.70;77.40
48994;DHT22;34804;49.214;12.276;2023-05-07T07:23:44;15.80;75.90
48994;DHT22;34804;49.214;12.276;2023-05-07T07:26:12;15.90;75.10
48994;DHT22;34804;49.214;12.276;2023-05-07T07:28:43;16.00;75.30
48994;DHT22;34804;49.214;12.276;2023-05-07T07:31:11;16.10;74.50
48994;DHT22;34804;49.214;12.276;2023-05-07T07:33:39;16.30;74.80
48994;DHT22;34804;49.214;12.276;2023-05-07T07:36:06;16.40;75.50
48994;DHT22;34804;49.214;12.276;2023-05-07T07:38:34;16.60;75.00
48994;DHT22;34804;49.214;12.276;2023-05-07T07:41:02;16.60;73.10
48994;DHT22;34804;49.214;12.276;2023-05-07T07:43:29;16.80;72.30
48994;DHT22;34804;49.214;12.276;2023-05-07T07:45:56;16.90;72.60
48994;DHT22;34804;49.214;12.276;2023-05-07T07:48:23;17.00;73.40
48994;DHT22;34804;49.214;12.276;2023-05-07T07:50:50;17.10;72.70
48994;DHT22;34804;49.214;12.276;2023-05-07T07:53:18;17.10;73.20
48994;DHT22;34804;49.214;12.276;2023-05-07T07:55:45;17.30;72.90
48994;DHT22;34804;49.214;12.276;2023-05-07T07:58:12;17.50;73.00
48994;DHT22;34804;49.214;12.276;2023-05-07T08:00:39;17.50;71.20
48994;DHT22;34804;49.214;12.276;2023-05-07T08:03:08;17.70;70.90
48994;DHT22;34804;49.214;12.276;2023-05-07T08:05:35;17.90;71.20
48994;DHT22;34804;49.214;12.276;2023-05-07T08:08:03;17.90;70.10
48994;DHT22;34804;49.214;12.276;2023-05-07T08:10:30;18.10;69.90
48994;DHT22;34804;49.214;12.276;2023-05-07T08:13:01;18.00;69.80
48994;DHT22;34804;49.214;12.276;2023-05-07T08:15:30;18.10;69.60
48994;DHT22;34804;49.214;12.276;2023-05-07T08:17:58;18.20;68.80
48994;DHT22;34804;49.214;12.276;2023-05-07T08:20:28;18.40;70.00
48994;DHT22;34804;49.214;12.276;2023-05-07T08:22:55;18.50;67.70
48994;DHT22;34804;49.214;12.276;2023-05-07T08:25:22;18.60;69.50
48994;DHT22;34804;49.214;12.276;2023-05-07T08:27:49;18.60;68.30
48994;DHT22;34804;49.214;12.276;2023-05-07T08:30:16;18.70;68.30
48994;DHT22;34804;49.214;12.276;2023-05-07T08:32:42;18.70;68.00
48994;DHT22;34804;49.214;12.276;2023-05-07T08:35:09;18.60;68.90
48994;DHT22;34804;49.214;12.276;2023-05-07T08:37:36;18.60;68.60
48994;DHT22;34804;49.214;12.276;2023-05-07T08:40:04;18.40;67.30
48994;DHT22;34804;49.214;12.276;2023-05-07T08:42:37;18.50;67.50
48994;DHT22;34804;49.214;12.276;2023-05-07T08:45:10;18.50;67.80
48994;DHT22;34804;49.214;12.276;2023-05-07T08:47:43;18.70;67.50
48994;DHT22;34804;49.214;12.276;2023-05-07T08:50:14;18.70;66.60
48994;DHT22;34804;49.214;12.276;2023-05-07T08:52:41;18.40;67.00
48994;DHT22;34804;49.214;12.276;2023-05-07T08:55:09;18.60;68.00
48994;DHT22;34804;49.214;12.276;2023-05-07T08:57:36;18.60;66.60
48994;DHT22;34804;49.214;12.276;2023-05-07T09:00:07;18.50;67.20
48994;DHT22;34804;49.214;12.276;2023-05-07T09:02:37;18.50;67.70
48994;DHT22;34804;49.214;12.276;2023-05-07T09:05:05;18.70;67.70
48994;DHT22;34804;49.214;12.276;2023-05-07T09:07:31;18.60;67.90
48994;DHT22;34804;49.214;12.276;2023-05-07T09:10:02;18.70;67.60
48994;DHT22;34804;49.214;12.276;2023-05-07T09:12:30;18.70;67.80
48994;DHT22;34804;49.214;12.276;2023-05-07T09:14:58;18.90;68.00
48994;DHT22;34804;49.214;12.276;2023-05-07T09:17:25;19.00;66.20
48994;DHT22;34804;49.214;12.276;2023-05-07T09:19:52;19.30;68.10
48994;DHT22;34804;49.214;12.276;2023-05-07T09:22:20;19.40;65.90
48994;DHT22;34804;49.214;12.276;2023-05-07T09:24:48;19.40;65.80
48994;DHT22;34804;49.214;12.276;2023-05-07T09:27:17;19.40;67.50
48994;DHT22;34804;49.214;12.276;2023-05-07T09:29:44;19.30;65.10
48994;DHT22;34804;49.214;12.276;2023-05-07T09:32:11;19.40;66.30
48994;DHT22;34804;49.214;12.276;2023-05-07T09:34:39;19.50;65.90
48994;DHT22;34804;49.214;12.276;2023-05-07T09:37:06;19.80;66.70
48994;DHT22;34804;49.214;12.276;2023-05-07T09:42:07;20.10;63.60
48994;DHT22;34804;49.214;12.276;2023-05-07T09:44:35;19.90;64.80
48994;DHT22;34804;49.214;12.276;2023-05-07T09:47:05;20.00;66.60
48994;DHT22;34804;49.214;12.276;2023-05-07T09:49:35;20.20;64.50
48994;DHT22;34804;49.214;12.276;2023-05-07T09:52:05;20.30;65.50
48994;DHT22;34804;49.214;12.276;2023-05-07T09:54:33;20.50;64.90
48994;DHT22;34804;49.214;12.276;2023-05-07T09:57:01;20.40;64.00
48994;DHT22;34804;49.214;12.276;2023-05-07T09:59:31;20.50;65.70
48994;DHT22;34804;49.214;12.276;2023-05-07T10:02:00;20.80;64.70
48994;DHT22;34804;49.214;12.276;2023-05-07T10:04:31;20.90;63.20
48994;DHT22;34804;49.214;12.276;2023-05-07T10:06:59;20.90;64.40
48994;DHT22;34804;49.214;12.276;2023-05-07T10:09:26;21.20;65.80
48994;DHT22;34804;49.214;12.276;2023-05-07T10:11:53;21.00;63.40
48994;DHT22;34804;49.214;12.276;2023-05-07T10:14:21;21.10;62.80
48994;DHT22;34804;49.214;12.276;2023-05-07T10:16:48;20.80;62.10
48994;DHT22;34804;49.214;12.276;2023-05-07T10:19:16;20.70;62.20
48994;DHT22;34804;49.214;12.276;2023-05-07T10:22:03;20.80;63.10
48994;DHT22;34804;49.214;12.276;2023-05-07T10:24:35;21.10;64.00
48994;DHT22;34804;49.214;12.276;2023-05-07T10:27:12;21.10;63.50
48994;DHT22;34804;49.214;12.276;2023-05-07T10:30:46;21.10;62.30
48994;DHT22;34804;49.214;12.276;2023-05-07T10:32:49;21.10;62.00
48994;DHT22;34804;49.214;12.276;2023-05-07T10:35:20;21.30;64.50
48994;DHT22;34804;49.214;12.276;2023-05-07T10:37:48;21.50;62.20
48994;DHT22;34804;49.214;12.276;2023-05-07T10:40:15;21.40;61.30
48994;DHT22;34804;49.214;12.276;2023-05-07T10:42:59;21.30;62.90
48994;DHT22;34804;49.214;12.276;2023-05-07T10:45:27;21.40;63.20
48994;DHT22;34804;49.214;12.276;2023-05-07T10:48:14;21.40;62.20
48994;DHT22;34804;49.214;12.276;2023-05-07T10:50:44;21.60;62.60
48994;DHT22;34804;49.214;12.276;2023-05-07T10:55:48;21.60;61.30
48994;DHT22;34804;49.214;12.276;2023-05-07T11:00:59;21.90;60.10
48994;DHT22;34804;49.214;12.276;2023-05-07T11:03:27;22.10;61.00
48994;DHT22;34804;49.214;12.276;2023-05-07T11:06:14;22.30;59.50
48994;DHT22;34804;49.214;12.276;2023-05-07T11:14:42;22.50;57.90
48994;DHT22;34804;49.214;12.276;2023-05-07T11:17:10;22.60;59.70
48994;DHT22;34804;49.214;12.276;2023-05-07T11:19:51;23.10;57.90
48994;DHT22;34804;49.214;12.276;2023-05-07T11:25:01;23.00;58.60
48994;DHT22;34804;49.214;12.276;2023-05-07T11:27:29;22.80;55.50
48994;DHT22;34804;49.214;12.276;2023-05-07T11:29:56;22.50;58.30
48994;DHT22;34804;49.214;12.276;2023-05-07T11:32:28;22.40;57.30
48994;DHT22;34804;49.214;12.276;2023-05-07T11:35:00;22.70;58.80
48994;DHT22;34804;49.214;12.276;2023-05-07T11:37:28;23.10;57.20
48994;DHT22;34804;49.214;12.276;2023-05-07T11:40:09;23.20;58.60
48994;DHT22;34804;49.214;12.276;2023-05-07T11:42:39;23.20;54.90
48994;DHT22;34804;49.214;12.276;2023-05-07T11:45:07;23.40;53.90
48994;DHT22;34804;49.214;12.276;2023-05-07T11:47:34;23.40;53.60
48994;DHT22;34804;49.214;12.276;2023-05-07T11:50:06;23.20;53.70
48994;DHT22;34804;49.214;12.276;2023-05-07T11:52:34;23.10;54.10
48994;DHT22;34804;49.214;12.276;2023-05-07T11:55:02;23.10;55.00
48994;DHT22;34804;49.214;12.276;2023-05-07T11:57:33;23.60;55.00
48994;DHT22;34804;49.214;12.276;2023-05-07T12:00:01;24.00;52.60
48994;DHT22;34804;49.214;12.276;2023-05-07T12:02:31;24.10;52.00
48994;DHT22;34804;49.214;12.276;2023-05-07T12:05:00;24.20;49.00
48994;DHT22;34804;49.214;12.276;2023-05-07T12:07:27;24.30;49.60
48994;DHT22;34804;49.214;12.276;2023-05-07T12:09:54;24.80;52.40
48994;DHT22;34804;49.214;12.276;2023-05-07T12:12:21;24.30;49.70
48994;DHT22;34804;49.214;12.276;2023-05-07T12:14:48;24.00;50.30
48994;DHT22;34804;49.214;12.276;2023-05-07T12:17:16;24.20;52.90
48994;DHT22;34804;49.214;12.276;2023-05-07T12:19:44;23.60;48.70
48994;DHT22;34804;49.214;12.276;2023-05-07T12:22:12;22.90;50.60
48994;DHT22;34804;49.214;12.276;2023-05-07T12:24:50;23.30;51.40
48994;DHT22;34804;49.214;12.276;2023-05-07T12:27:22;23.80;52.20
48994;DHT22;34804;49.214;12.276;2023-05-07T12:29:50;23.30;51.70
48994;DHT22;34804;49.214;12.276;2023-05-07T12:32:18;24.10;51.10
48994;DHT22;34804;49.214;12.276;2023-05-07T12:34:47;25.00;45.80
48994;DHT22;34804;49.214;12.276;2023-05-07T12:37:15;25.80;46.50
48994;DHT22;34804;49.214;12.276;2023-05-07T12:39:49;25.70;42.40
48994;DHT22;34804;49.214;12.276;2023-05-07T12:42:20;25.60;42.60
48994;DHT22;34804;49.214;12.276;2023-05-07T12:44:52;26.80;45.20
48994;DHT22;34804;49.214;12.276;2023-05-07T12:47:18;26.60;44.20
48994;DHT22;34804;49.214;12.276;2023-05-07T12:49:47;25.80;48.10
48994;DHT22;34804;49.214;12.276;2023-05-07T12:52:13;24.60;49.20
48994;DHT22;34804;49.214;12.276;2023-05-07T12:54:40;23.40;50.40
48994;DHT22;34804;49.214;12.276;2023-05-07T12:57:09;22.80;53.70
48994;DHT22;34804;49.214;12.276;2023-05-07T12:59:38;23.20;54.90
48994;DHT22;34804;49.214;12.276;2023-05-07T13:02:06;24.10;52.40
48994;DHT22;34804;49.214;12.276;2023-05-07T13:04:33;24.10;50.90
48994;DHT22;34804;49.214;12.276;2023-05-07T13:07:01;24.10;51.80
48994;DHT22;34804;49.214;12.276;2023-05-07T13:09:29;24.70;50.80
48994;DHT22;34804;49.214;12.276;2023-05-07T13:11:56;24.20;51.10
48994;DHT22;34804;49.214;12.276;2023-05-07T13:14:23;24.20;51.10
48994;DHT22;34804;49.214;12.276;2023-05-07T13:16:49;23.20;52.00
48994;DHT22;34804;49.214;12.276;2023-05-07T13:19:16;22.40;53.10
48994;DHT22;34804;49.214;12.276;2023-05-07T13:21:44;22.10;54.00
48994;DHT22;34804;49.214;12.276;2023-05-07T13:24:11;22.10;55.70
48994;DHT22;34804;49.214;12.276;2023-05-07T13:26:38;22.60;54.70
48994;DHT22;34804;49.214;12.276;2023-05-07T13:29:04;22.70;54.40
48994;DHT22;34804;49.214;12.276;2023-05-07T13:31:31;21.80;55.40
48994;DHT22;34804;49.214;12.276;2023-05-07T13:33:58;21.60;56.60
48994;DHT22;34804;49.214;12.276;2023-05-07T13:36:25;21.80;57.20
48994;DHT22;34804;49.214;12.276;2023-05-07T13:38:53;22.40;56.20
48994;DHT22;34804;49.214;12.276;2023-05-07T13:41:20;23.00;54.30
48994;DHT22;34804;49.214;12.276;2023-05-07T13:43:48;23.20;53.60
48994;DHT22;34804;49.214;12.276;2023-05-07T13:46:15;24.70;51.80
48994;DHT22;34804;49.214;12.276;2023-05-07T13:48:42;25.40;50.30
48994;DHT22;34804;49.214;12.276;2023-05-07T13:51:09;24.70;48.80
48994;DHT22;34804;49.214;12.276;2023-05-07T13:53:36;23.80;50.10
48994;DHT22;34804;49.214;12.276;2023-05-07T13:56:03;23.40;50.30
48994;DHT22;34804;49.214;12.276;2023-05-07T13:58:31;23.20;51.90
48994;DHT22;34804;49.214;12.276;2023-05-07T14:00:58;23.00;51.90
48994;DHT22;34804;49.214;12.276;2023-05-07T14:03:25;23.40;51.20
48994;DHT22;34804;49.214;12.276;2023-05-07T14:05:53;24.40;51.50
48994;DHT22;34804;49.214;12.276;2023-05-07T14:08:20;25.60;47.60
48994;DHT22;34804;49.214;12.276;2023-05-07T14:10:47;25.80;46.50
48994;DHT22;34804;49.214;12.276;2023-05-07T14:13:14;25.60;45.30
48994;DHT22;34804;49.214;12.276;2023-05-07T14:15:41;24.70;46.60
48994;DHT22;34804;49.214;12.276;2023-05-07T14:18:13;24.10;47.70
48994;DHT22;34804;49.214;12.276;2023-05-07T14:20:39;24.40;46.10
48994;DHT22;34804;49.214;12.276;2023-05-07T14:23:06;25.50;46.50
48994;DHT22;34804;49.214;12.276;2023-05-07T14:25:33;26.20;43.70
48994;DHT22;34804;49.214;12.276;2023-05-07T14:28:00;26.50;44.20
48994;DHT22;34804;49.214;12.276;2023-05-07T14:30:27;27.30;41.70
48994;DHT22;34804;49.214;12.276;2023-05-07T14:32:54;27.70;41.00
48994;DHT22;34804;49.214;12.276;2023-05-07T14:35:21;27.30;39.30
48994;DHT22;34804;49.214;12.276;2023-05-07T14:37:48;26.40;41.40
48994;DHT22;34804;49.214;12.276;2023-05-07T14:40:15;26.40;42.80
48994;DHT22;34804;49.214;12.276;2023-05-07T14:42:42;25.80;41.90
48994;DHT22;34804;49.214;12.276;2023-05-07T14:45:09;25.60;41.90
48994;DHT22;34804;49.214;12.276;2023-05-07T14:47:37;25.10;43.10
48994;DHT22;34804;49.214;12.276;2023-05-07T14:50:04;24.90;43.10
48994;DHT22;34804;49.214;12.276;2023-05-07T14:52:31;25.40;44.10
48994;DHT22;34804;49.214;12.276;2023-05-07T14:54:58;26.00;42.20
48994;DHT22;34804;49.214;12.276;2023-05-07T14:57:25;25.00;42.80
48994;DHT22;34804;49.214;12.276;2023-05-07T14:59:52;24.80;44.70
48994;DHT22;34804;49.214;12.276;2023-05-07T15:02:19;25.40;45.00
48994;DHT22;34804;49.214;12.276;2023-05-07T15:04:47;25.30;44.60
48994;DHT22;34804;49.214;12.276;2023-05-07T15:07:15;25.30;43.50
48994;DHT22;34804;49.214;12.276;2023-05-07T15:09:43;25.10;43.80
48994;DHT22;34804;49.214;12.276;2023-05-07T15:12:10;25.60;45.00
48994;DHT22;34804;49.214;12.276;2023-05-07T15:14:39;26.10;44.40
48994;DHT22;34804;49.214;12.276;2023-05-07T15:17:06;25.80;43.00
48994;DHT22;34804;49.214;12.276;2023-05-07T15:19:34;25.00;45.40
48994;DHT22;34804;49.214;12.276;2023-05-07T15:22:01;24.90;45.30
48994;DHT22;34804;49.214;12.276;2023-05-07T15:24:31;25.70;44.00
48994;DHT22;34804;49.214;12.276;2023-05-07T15:26:58;25.80;43.00
48994;DHT22;34804;49.214;12.276;2023-05-07T15:29:25;25.50;44.60
48994;DHT22;34804;49.214;12.276;2023-05-07T15:31:52;25.40;44.60
48994;DHT22;34804;49.214;12.276;2023-05-07T15:34:19;24.60;45.40
48994;DHT22;34804;49.214;12.276;2023-05-07T15:36:46;24.30;45.90
48994;DHT22;34804;49.214;12.276;2023-05-07T15:39:12;24.50;45.70
48994;DHT22;34804;49.214;12.276;2023-05-07T15:41:39;24.60;45.90